createdAt,value
2018-12-09T00:02:25.661Z,71.66
2018-12-09T00:04:54.914Z,71.47
2018-12-09T00:07:24.077Z,71.24
2018-12-09T00:09:53.307Z,71.31
2018-12-09T00:12:22.532Z,71.25
2018-12-09T00:14:51.744Z,71.79
2018-12-09T00:17:21.037Z,71.53
2018-12-09T00:19:51.750Z,71.12
2018-12-09T00:22:21.009Z,70.96
2018-12-09T00:24:50.276Z,71.01
2018-12-09T00:27:19.459Z,70.62
2018-12-09T00:29:48.643Z,69.80
2018-12-09T00:32:17.895Z,70.26
2018-12-09T00:34:47.126Z,70.21
2018-12-09T00:37:16.457Z,69.93
2018-12-09T00:39:45.644Z,70.10
2018-12-09T00:42:14.860Z,70.15
2018-12-09T00:44:44.291Z,70.50
2018-12-09T00:47:13.491Z,70.95
2018-12-09T00:49:42.717Z,70.90
2018-12-09T00:52:11.996Z,71.46
2018-12-09T00:54:41.115Z,71.51
2018-12-09T00:57:10.339Z,71.84
2018-12-09T00:59:39.558Z,72.01
2018-12-09T01:02:09.660Z,72.09
2018-12-09T01:04:38.972Z,71.99
2018-12-09T01:07:08.303Z,72.12
2018-12-09T01:09:37.483Z,72.31
2018-12-09T01:12:06.728Z,72.29
2018-12-09T01:14:35.916Z,72.57
2018-12-09T01:17:05.148Z,72.36
2018-12-09T01:19:34.376Z,72.60
2018-12-09T01:22:03.654Z,72.54
2018-12-09T01:24:32.877Z,72.28
2018-12-09T01:27:02.564Z,72.00
2018-12-09T01:29:31.801Z,71.73
2018-12-09T01:32:01.503Z,71.39
2018-12-09T01:34:30.814Z,71.58
2018-12-09T01:37:00.008Z,71.09
2018-12-09T01:39:29.215Z,70.51
2018-12-09T01:41:58.912Z,70.21
2018-12-09T01:44:28.133Z,69.88
2018-12-09T01:46:57.389Z,69.54
2018-12-09T01:49:26.675Z,69.62
2018-12-09T01:51:55.929Z,69.43
2018-12-09T01:54:25.305Z,68.75
2018-12-09T01:56:54.516Z,67.92
2018-12-09T01:59:23.654Z,67.04
2018-12-09T02:01:52.939Z,67.05
2018-12-09T02:04:22.347Z,66.83
2018-12-09T02:06:51.572Z,67.23
2018-12-09T02:09:20.847Z,67.91
2018-12-09T02:11:50.061Z,66.58
2018-12-09T02:14:19.819Z,66.85
2018-12-09T02:16:49.119Z,67.88
2018-12-09T02:19:20.809Z,68.26
2018-12-09T02:21:50.340Z,68.27
2018-12-09T02:24:20.151Z,68.10
2018-12-09T02:26:49.363Z,67.33
2018-12-09T02:29:18.579Z,67.59
2018-12-09T02:31:47.836Z,67.46
2018-12-09T02:34:17.050Z,67.80
2018-12-09T02:36:46.607Z,67.67
2018-12-09T02:39:16.047Z,67.39
2018-12-09T02:41:45.584Z,67.29
2018-12-09T02:44:14.804Z,67.36
2018-12-09T02:46:50.686Z,67.66
2018-12-09T02:49:19.846Z,67.12
2018-12-09T02:51:49.078Z,67.15
2018-12-09T02:54:18.364Z,67.35
2018-12-09T02:56:47.621Z,66.79
2018-12-09T02:59:16.774Z,66.36
2018-12-09T03:01:46.069Z,66.02
2018-12-09T03:04:15.288Z,66.09
2018-12-09T03:06:44.563Z,66.16
2018-12-09T03:09:13.796Z,66.29
2018-12-09T03:11:42.988Z,66.56
2018-12-09T03:14:12.864Z,65.88
2018-12-09T03:16:42.564Z,65.71
2018-12-09T03:19:11.647Z,65.01
2018-12-09T03:21:40.889Z,64.95
2018-12-09T03:24:10.133Z,64.96
2018-12-09T03:26:39.343Z,64.93
2018-12-09T03:29:08.574Z,64.57
2018-12-09T03:31:37.807Z,65.31
2018-12-09T03:34:06.976Z,65.04
2018-12-09T03:36:36.348Z,64.64
2018-12-09T03:39:07.725Z,64.13
2018-12-09T03:41:37.004Z,64.20
2018-12-09T03:44:06.368Z,64.58
2018-12-09T03:46:35.521Z,64.61
2018-12-09T03:49:05.420Z,64.52
2018-12-09T03:51:34.670Z,64.75
2018-12-09T03:54:03.979Z,65.10
2018-12-09T03:56:33.248Z,64.54
2018-12-09T03:59:02.411Z,64.90
2018-12-09T04:01:31.723Z,65.09
2018-12-09T04:04:01.024Z,65.54
2018-12-09T04:06:36.435Z,65.52
2018-12-09T04:09:06.083Z,65.62
2018-12-09T04:11:35.160Z,66.00
2018-12-09T04:14:04.449Z,66.25
2018-12-09T04:16:34.544Z,67.24
2018-12-09T04:19:03.858Z,67.35
2018-12-09T04:21:33.488Z,67.52
2018-12-09T04:24:02.688Z,67.69
2018-12-09T04:26:31.898Z,67.86
2018-12-09T04:29:01.052Z,67.91
2018-12-09T04:31:30.308Z,68.30
2018-12-09T04:33:59.522Z,68.28
2018-12-09T04:36:28.764Z,68.22
2018-12-09T04:38:58.077Z,68.88
2018-12-09T04:41:27.260Z,68.84
2018-12-09T04:43:56.398Z,69.05
2018-12-09T04:46:25.660Z,69.42
2018-12-09T04:48:54.979Z,69.51
2018-12-09T04:51:24.155Z,69.13
2018-12-09T04:53:53.359Z,69.28
2018-12-09T04:56:22.669Z,69.72
2018-12-09T04:59:20.724Z,69.57
2018-12-09T05:01:49.937Z,69.51
2018-12-09T05:04:19.428Z,69.77
2018-12-09T05:06:48.593Z,69.45
2018-12-09T05:09:17.845Z,69.54
2018-12-09T05:11:47.113Z,69.68
2018-12-09T05:14:16.540Z,69.86
2018-12-09T05:16:45.802Z,70.15
2018-12-09T05:19:15.176Z,70.45
2018-12-09T05:21:44.524Z,70.53
2018-12-09T05:24:13.662Z,70.58
2018-12-09T05:26:42.821Z,71.03
2018-12-09T05:29:12.084Z,71.06
2018-12-09T05:31:41.372Z,70.88
2018-12-09T05:34:10.568Z,70.90
2018-12-09T05:36:39.731Z,70.30
2018-12-09T05:39:08.918Z,70.02
2018-12-09T05:41:38.127Z,69.58
2018-12-09T05:44:07.322Z,69.62
2018-12-09T05:46:36.816Z,68.75
2018-12-09T05:49:06.048Z,68.37
2018-12-09T05:51:35.323Z,68.00
2018-12-09T05:54:04.563Z,67.56
2018-12-09T05:56:33.816Z,67.01
2018-12-09T05:59:02.916Z,66.44
2018-12-09T06:01:32.095Z,66.86
2018-12-09T06:04:01.308Z,66.62
2018-12-09T06:06:30.522Z,66.79
2018-12-09T06:09:00.183Z,66.88
2018-12-09T06:11:29.449Z,66.82
2018-12-09T06:13:58.656Z,66.61
2018-12-09T06:16:27.795Z,66.32
2018-12-09T06:18:56.970Z,66.01
2018-12-09T06:21:26.219Z,65.88
2018-12-09T06:23:55.399Z,66.20
2018-12-09T06:26:24.565Z,65.67
2018-12-09T06:28:53.971Z,65.74
2018-12-09T06:31:23.439Z,65.96
2018-12-09T06:33:52.567Z,65.83
2018-12-09T06:36:21.787Z,65.73
2018-12-09T06:38:50.955Z,65.70
2018-12-09T06:41:20.202Z,65.27
2018-12-09T06:43:49.471Z,65.14
2018-12-09T06:46:18.711Z,64.62
2018-12-09T06:48:47.991Z,64.67
2018-12-09T06:51:17.179Z,64.52
2018-12-09T06:53:46.364Z,63.98
2018-12-09T06:56:15.739Z,64.10
2018-12-09T06:58:44.853Z,64.22
2018-12-09T07:01:14.065Z,63.99
2018-12-09T07:03:43.280Z,63.66
2018-12-09T07:06:12.720Z,63.81
2018-12-09T07:08:42.062Z,64.35
2018-12-09T07:11:11.227Z,65.16
2018-12-09T07:13:40.384Z,66.04
2018-12-09T07:16:09.551Z,66.47
2018-12-09T07:18:39.059Z,66.91
2018-12-09T07:21:08.523Z,67.52
2018-12-09T07:23:37.691Z,68.60
2018-12-09T07:26:06.863Z,69.03
2018-12-09T07:28:36.084Z,69.65
2018-12-09T07:31:05.327Z,69.81
2018-12-09T07:33:34.449Z,70.50
2018-12-09T07:36:03.684Z,70.07
2018-12-09T07:38:32.890Z,69.83
2018-12-09T07:41:02.503Z,69.58
2018-12-09T07:43:31.764Z,69.84
2018-12-09T07:46:00.946Z,69.75
2018-12-09T07:48:30.135Z,69.92
2018-12-09T07:50:59.314Z,69.73
2018-12-09T07:53:28.727Z,69.95
2018-12-09T07:55:58.061Z,69.67
2018-12-09T07:58:27.295Z,70.23
2018-12-09T08:00:56.446Z,70.30
2018-12-09T08:03:25.643Z,70.66
2018-12-09T08:05:54.828Z,70.64
2018-12-09T08:08:24.083Z,70.99
2018-12-09T08:10:53.348Z,70.61
2018-12-09T08:13:22.579Z,71.08
2018-12-09T08:15:51.739Z,71.16
2018-12-09T08:18:20.883Z,70.66
2018-12-09T08:20:50.078Z,70.28
2018-12-09T08:23:19.290Z,69.33
2018-12-09T08:25:48.497Z,69.20
2018-12-09T08:28:17.808Z,69.05
2018-12-09T08:30:47.032Z,68.77
2018-12-09T08:33:16.185Z,68.30
2018-12-09T08:35:45.366Z,68.50
2018-12-09T08:38:14.575Z,68.69
2018-12-09T08:40:43.759Z,68.69
2018-12-09T08:43:12.986Z,68.73
2018-12-09T08:45:42.173Z,68.48
2018-12-09T08:48:11.347Z,68.03
2018-12-09T08:50:40.611Z,67.67
2018-12-09T08:53:09.765Z,68.31
2018-12-09T08:55:38.965Z,68.81
2018-12-09T08:58:08.143Z,68.61
2018-12-09T09:00:37.393Z,69.03
2018-12-09T09:03:06.683Z,68.52
2018-12-09T09:05:35.796Z,68.23
2018-12-09T09:08:04.964Z,67.77
2018-12-09T09:10:34.135Z,68.17
2018-12-09T09:13:03.315Z,68.57
2018-12-09T09:15:32.524Z,68.58
2018-12-09T09:18:01.698Z,67.90
2018-12-09T09:20:30.817Z,67.75
2018-12-09T09:23:00.009Z,68.18
2018-12-09T09:25:29.237Z,67.98
2018-12-09T09:27:58.469Z,68.00
2018-12-09T09:30:27.618Z,68.43
2018-12-09T09:32:56.856Z,68.05
2018-12-09T09:35:26.051Z,67.81
2018-12-09T09:37:55.230Z,68.05
2018-12-09T09:40:24.476Z,68.07
2018-12-09T09:42:53.682Z,68.14
2018-12-09T09:45:22.822Z,68.13
2018-12-09T09:47:51.976Z,67.62
2018-12-09T09:50:21.221Z,67.69
2018-12-09T09:52:50.447Z,68.40
2018-12-09T09:55:19.736Z,67.96
2018-12-09T09:57:48.931Z,68.32
2018-12-09T10:00:18.124Z,68.30
2018-12-09T10:02:47.420Z,67.92
2018-12-09T10:05:16.643Z,68.26
2018-12-09T10:07:45.829Z,67.53
2018-12-09T10:10:15.105Z,68.06
2018-12-09T10:12:44.391Z,67.62
2018-12-09T10:15:13.597Z,68.19
2018-12-09T10:17:42.804Z,68.49
2018-12-09T10:20:11.986Z,68.79
2018-12-09T10:22:41.246Z,68.52
2018-12-09T10:25:10.380Z,68.03
2018-12-09T10:27:39.664Z,67.73
2018-12-09T10:30:09.648Z,68.02
2018-12-09T10:32:38.879Z,68.00
2018-12-09T10:35:08.103Z,67.60
2018-12-09T10:37:37.402Z,68.03
2018-12-09T10:40:07.285Z,69.23
2018-12-09T10:42:36.452Z,69.38
2018-12-09T10:45:05.804Z,68.96
2018-12-09T10:47:34.979Z,68.89
2018-12-09T10:50:04.747Z,68.55
2018-12-09T10:52:33.992Z,68.17
2018-12-09T10:55:03.217Z,68.54
2018-12-09T10:57:32.397Z,68.87
2018-12-09T11:00:01.613Z,68.59
2018-12-09T11:02:30.775Z,67.87
2018-12-09T11:05:00.058Z,68.41
2018-12-09T11:07:29.214Z,66.63
2018-12-09T11:09:58.407Z,66.39
2018-12-09T11:12:27.691Z,66.20
2018-12-09T11:14:56.893Z,65.83
2018-12-09T11:17:26.042Z,66.16
2018-12-09T11:19:55.237Z,66.37
2018-12-09T11:22:24.450Z,65.69
2018-12-09T11:24:53.669Z,66.29
2018-12-09T11:27:22.968Z,65.96
2018-12-09T11:29:52.084Z,65.95
2018-12-09T11:32:21.319Z,66.06
2018-12-09T11:34:50.534Z,65.86
2018-12-09T11:37:19.738Z,66.31
2018-12-09T11:39:48.953Z,66.60
2018-12-09T11:42:18.225Z,67.19
2018-12-09T11:44:47.612Z,67.17
2018-12-09T11:47:16.839Z,67.12
2018-12-09T11:49:46.064Z,66.76
2018-12-09T11:52:15.259Z,66.12
2018-12-09T11:54:44.501Z,65.67
2018-12-09T11:57:13.841Z,65.08
2018-12-09T11:59:44.996Z,64.94
2018-12-09T12:02:20.057Z,65.34
2018-12-09T12:04:45.399Z,65.49
2018-12-09T12:07:14.676Z,65.73
2018-12-09T12:09:43.892Z,65.84
2018-12-09T12:12:13.160Z,65.61
2018-12-09T12:14:42.406Z,65.05
2018-12-09T12:17:11.640Z,64.87
2018-12-09T12:19:40.813Z,64.35
2018-12-09T12:22:09.923Z,64.35
2018-12-09T12:24:39.156Z,64.71
2018-12-09T12:27:08.524Z,64.11
2018-12-09T12:29:37.704Z,63.81
2018-12-09T12:32:06.883Z,63.82
2018-12-09T12:34:36.143Z,63.88
2018-12-09T12:37:05.398Z,64.34
2018-12-09T12:39:34.612Z,64.83
2018-12-09T12:42:03.809Z,64.81
2018-12-09T12:44:33.069Z,64.68
2018-12-09T12:47:02.257Z,64.53
2018-12-09T12:49:31.956Z,64.57
2018-12-09T12:52:01.321Z,64.62
2018-12-09T12:54:30.483Z,63.94
2018-12-09T12:56:59.748Z,63.94
2018-12-09T12:59:28.867Z,63.99
2018-12-09T13:01:58.136Z,64.16
2018-12-09T13:04:27.568Z,64.05
2018-12-09T13:06:56.739Z,63.73
2018-12-09T13:09:25.943Z,63.87
2018-12-09T13:11:55.162Z,64.68
2018-12-09T13:14:24.363Z,64.41
2018-12-09T13:16:53.621Z,64.96
2018-12-09T13:19:22.782Z,64.78
2018-12-09T13:21:52.116Z,65.17
2018-12-09T13:24:21.391Z,64.76
2018-12-09T13:26:50.571Z,64.79
2018-12-09T13:29:19.830Z,64.50
2018-12-09T13:31:49.106Z,64.14
2018-12-09T13:34:18.396Z,64.31
2018-12-09T13:36:47.688Z,64.24
2018-12-09T13:39:16.974Z,64.91
2018-12-09T13:41:46.232Z,64.74
2018-12-09T13:44:15.664Z,64.45
2018-12-09T13:46:44.812Z,64.91
2018-12-09T13:49:14.120Z,65.09
2018-12-09T13:51:43.336Z,64.90
2018-12-09T13:54:12.556Z,65.50
2018-12-09T13:56:41.727Z,66.05
2018-12-09T13:59:10.959Z,66.08
2018-12-09T14:01:40.216Z,66.58
2018-12-09T14:04:10.470Z,66.65
2018-12-09T14:06:39.691Z,66.80
2018-12-09T14:09:09.148Z,67.51
2018-12-09T14:11:38.331Z,66.26
2018-12-09T14:14:07.559Z,66.91
2018-12-09T14:16:36.758Z,66.16
2018-12-09T14:19:05.978Z,65.88
2018-12-09T14:21:35.352Z,66.00
2018-12-09T14:24:04.566Z,65.53
2018-12-09T14:26:33.766Z,65.82
2018-12-09T14:29:02.986Z,65.48
2018-12-09T14:31:34.105Z,65.01
2018-12-09T14:34:03.547Z,65.28
2018-12-09T14:36:32.802Z,65.48
2018-12-09T14:39:02.031Z,65.34
2018-12-09T14:41:31.237Z,65.60
2018-12-09T14:44:00.512Z,65.19
2018-12-09T14:46:29.805Z,65.47
2018-12-09T14:48:58.888Z,65.49
2018-12-09T14:51:28.172Z,65.12
2018-12-09T14:53:57.426Z,65.63
2018-12-09T14:56:26.574Z,65.46
2018-12-09T14:58:55.734Z,66.44
2018-12-09T15:01:25.057Z,66.43
2018-12-09T15:03:54.286Z,66.01
2018-12-09T15:06:25.529Z,67.41
2018-12-09T15:08:54.768Z,67.93
2018-12-09T15:11:24.107Z,68.52
2018-12-09T15:13:53.303Z,69.06
2018-12-09T15:16:22.539Z,69.73
2018-12-09T15:18:51.816Z,70.26
2018-12-09T15:21:21.117Z,70.05
2018-12-09T15:23:50.311Z,70.49
2018-12-09T15:26:19.600Z,70.60
2018-12-09T15:28:48.787Z,71.12
2018-12-09T15:31:18.069Z,70.95
2018-12-09T15:33:47.253Z,70.02
2018-12-09T15:36:16.504Z,70.52
2018-12-09T15:38:45.702Z,70.60
2018-12-09T15:41:14.896Z,70.35
2018-12-09T15:43:44.088Z,70.04
2018-12-09T15:46:13.416Z,69.71
2018-12-09T15:48:42.597Z,69.19
2018-12-09T15:51:12.172Z,68.73
2018-12-09T15:53:41.563Z,68.40
2018-12-09T15:56:10.727Z,68.13
2018-12-09T15:58:40.181Z,68.39
2018-12-09T16:01:09.480Z,68.11
2018-12-09T16:03:38.756Z,67.84
2018-12-09T16:06:08.068Z,67.65
2018-12-09T16:08:37.428Z,67.52
2018-12-09T16:11:06.646Z,67.60
2018-12-09T16:13:35.903Z,67.42
2018-12-09T16:16:05.400Z,67.64
2018-12-09T16:18:34.652Z,67.95
2018-12-09T16:21:03.868Z,68.21
2018-12-09T16:23:33.012Z,68.35
2018-12-09T16:26:02.184Z,68.70
2018-12-09T16:28:31.315Z,69.44
2018-12-09T16:31:00.504Z,70.89
2018-12-09T16:33:30.389Z,71.62
2018-12-09T16:35:59.566Z,71.02
2018-12-09T16:38:29.780Z,70.51
2018-12-09T16:40:58.975Z,70.87
2018-12-09T16:43:28.264Z,71.61
2018-12-09T16:45:57.447Z,71.44
2018-12-09T16:48:26.596Z,72.74
2018-12-09T16:51:02.541Z,73.31
2018-12-09T16:53:31.757Z,71.59
2018-12-09T16:56:00.926Z,71.58
2018-12-09T16:58:30.083Z,72.06
2018-12-09T17:00:59.283Z,72.06
2018-12-09T17:03:28.618Z,71.46
2018-12-09T17:05:58.115Z,71.50
2018-12-09T17:08:27.339Z,71.85
2018-12-09T17:10:56.458Z,71.90
2018-12-09T17:13:25.827Z,71.80
2018-12-09T17:15:55.059Z,72.17
2018-12-09T17:18:24.307Z,71.81
2018-12-09T17:20:53.599Z,71.44
2018-12-09T17:23:23.287Z,71.30
2018-12-09T17:25:52.481Z,70.88
2018-12-09T17:28:21.678Z,69.89
2018-12-09T17:30:50.859Z,69.77
2018-12-09T17:33:20.015Z,69.79
2018-12-09T17:35:49.272Z,69.52
2018-12-09T17:38:18.418Z,69.42
2018-12-09T17:40:47.598Z,69.24
2018-12-09T17:43:16.760Z,69.11
2018-12-09T17:45:45.912Z,68.58
2018-12-09T17:48:15.095Z,67.69
2018-12-09T17:50:44.300Z,67.60
2018-12-09T17:53:13.547Z,67.70
2018-12-09T17:55:42.811Z,67.79
2018-12-09T17:58:11.960Z,67.84
2018-12-09T18:00:41.368Z,67.63
2018-12-09T18:03:10.611Z,67.43
2018-12-09T18:05:39.868Z,67.73
2018-12-09T18:08:09.971Z,67.74
2018-12-09T18:10:39.259Z,68.12
2018-12-09T18:13:08.439Z,68.08
2018-12-09T18:15:38.744Z,67.21
2018-12-09T18:18:08.068Z,67.41
2018-12-09T18:20:38.336Z,66.65
2018-12-09T18:23:07.600Z,66.41
2018-12-09T18:25:36.931Z,66.82
2018-12-09T18:28:06.149Z,66.88
2018-12-09T18:30:35.785Z,66.19
2018-12-09T18:33:05.094Z,66.25
2018-12-09T18:35:34.482Z,66.07
2018-12-09T18:38:03.732Z,65.82
2018-12-09T18:40:33.012Z,65.86
2018-12-09T18:43:03.065Z,65.48
2018-12-09T18:45:32.370Z,65.12
2018-12-09T18:48:01.596Z,65.25
2018-12-09T18:50:30.758Z,65.05
2018-12-09T18:53:00.059Z,65.18
2018-12-09T18:55:29.645Z,65.11
2018-12-09T18:57:58.896Z,64.95
2018-12-09T19:00:28.107Z,65.31
2018-12-09T19:02:57.371Z,65.41
2018-12-09T19:05:26.628Z,65.62
2018-12-09T19:07:55.858Z,66.15
2018-12-09T19:10:25.130Z,66.05
2018-12-09T19:12:54.414Z,66.27
2018-12-09T19:15:23.624Z,66.59
2018-12-09T19:17:52.813Z,66.39
2018-12-09T19:20:22.043Z,66.62
2018-12-09T19:22:51.202Z,66.22
2018-12-09T19:25:20.483Z,66.76
2018-12-09T19:27:49.635Z,66.41
2018-12-09T19:30:18.766Z,66.53
2018-12-09T19:32:48.063Z,66.24
2018-12-09T19:35:17.258Z,65.46
2018-12-09T19:37:46.367Z,65.47
2018-12-09T19:40:15.551Z,64.84
2018-12-09T19:42:44.948Z,64.88
2018-12-09T19:45:14.112Z,64.77
2018-12-09T19:47:43.745Z,64.62
2018-12-09T19:50:12.939Z,64.79
2018-12-09T19:52:42.076Z,64.65
2018-12-09T19:55:11.278Z,65.13
2018-12-09T19:57:40.551Z,65.31
2018-12-09T20:00:09.819Z,65.94
2018-12-09T20:02:38.987Z,66.22
2018-12-09T20:05:09.847Z,66.47
2018-12-09T20:07:39.165Z,66.22
2018-12-09T20:12:54.693Z,65.29
2018-12-09T20:15:24.045Z,64.73
2018-12-09T20:17:53.235Z,65.10
2018-12-09T20:20:22.461Z,64.89
2018-12-09T20:22:51.738Z,64.31
2018-12-09T20:25:20.957Z,64.53
2018-12-09T20:27:50.131Z,64.44
2018-12-09T20:30:19.396Z,64.43
2018-12-09T20:32:48.622Z,64.82
2018-12-09T20:35:17.868Z,64.33
2018-12-09T20:37:47.067Z,64.29
2018-12-09T20:40:16.340Z,64.12
2018-12-09T20:42:48.274Z,63.69
2018-12-09T20:45:16.888Z,63.34
2018-12-09T20:47:46.344Z,63.18
2018-12-09T20:50:15.487Z,63.62
2018-12-09T20:52:47.559Z,63.38
2018-12-09T20:55:16.754Z,63.43
2018-12-09T20:57:45.878Z,63.32
2018-12-09T21:00:15.100Z,63.51
2018-12-09T21:02:44.281Z,63.24
2018-12-09T21:05:13.515Z,63.08
2018-12-09T21:07:42.638Z,62.60
2018-12-09T21:10:12.195Z,63.09
2018-12-09T21:12:41.432Z,63.06
2018-12-09T21:15:10.623Z,63.22
2018-12-09T21:17:39.862Z,63.47
2018-12-09T21:20:09.263Z,63.10
2018-12-09T21:22:38.456Z,63.25
2018-12-09T21:25:07.762Z,63.20
2018-12-09T21:27:36.971Z,62.77
2018-12-09T21:30:07.229Z,62.89
2018-12-09T21:32:36.475Z,62.83
2018-12-09T21:35:06.579Z,62.38
2018-12-09T21:37:35.750Z,62.38
2018-12-09T21:40:05.303Z,62.29
2018-12-09T21:42:34.536Z,62.19
2018-12-09T21:45:03.856Z,61.88
2018-12-09T21:47:33.098Z,61.86
2018-12-09T21:50:02.337Z,62.17
2018-12-09T21:52:31.447Z,62.01
2018-12-09T21:55:00.606Z,62.40
2018-12-09T21:57:29.852Z,62.75
2018-12-09T21:59:59.133Z,62.50
2018-12-09T22:02:28.274Z,62.67
2018-12-09T22:04:57.420Z,62.69
2018-12-09T22:07:26.538Z,63.03
2018-12-09T22:09:55.732Z,62.87
2018-12-09T22:12:24.923Z,62.49
2018-12-09T22:14:54.234Z,62.39
2018-12-09T22:17:23.485Z,63.01
2018-12-09T22:19:52.604Z,63.50
2018-12-09T22:22:21.868Z,63.42
2018-12-09T22:24:51.057Z,62.75
2018-12-09T22:27:20.308Z,62.96
2018-12-09T22:29:49.451Z,62.74
2018-12-09T22:32:18.672Z,62.58
2018-12-09T22:34:47.995Z,62.24
2018-12-09T22:37:17.192Z,62.47
2018-12-09T22:39:46.381Z,61.82
2018-12-09T22:42:15.669Z,61.87
2018-12-09T22:44:44.896Z,61.45
2018-12-09T22:47:14.080Z,61.38
2018-12-09T22:49:43.260Z,61.38
2018-12-09T22:52:12.488Z,61.32
2018-12-09T22:54:41.631Z,61.42
2018-12-09T22:57:10.820Z,60.91
2018-12-09T22:59:40.099Z,60.78
2018-12-09T23:02:14.548Z,60.63
2018-12-09T23:04:43.864Z,59.80
2018-12-09T23:07:18.465Z,60.24
2018-12-09T23:09:47.777Z,60.59
2018-12-09T23:12:17.004Z,60.50
2018-12-09T23:14:46.153Z,60.65
2018-12-09T23:17:15.371Z,60.85
2018-12-09T23:19:44.616Z,60.82
2018-12-09T23:22:13.787Z,61.11
2018-12-09T23:24:43.288Z,61.70
2018-12-09T23:27:12.976Z,61.42
2018-12-09T23:29:42.167Z,61.70
2018-12-09T23:32:11.345Z,61.94
2018-12-09T23:34:40.505Z,62.30
2018-12-09T23:37:09.648Z,62.18
2018-12-09T23:39:38.960Z,62.28
2018-12-09T23:42:08.203Z,62.05
2018-12-09T23:44:37.438Z,61.96
2018-12-09T23:47:06.597Z,62.00
2018-12-09T23:49:35.764Z,62.13
2018-12-09T23:52:05.040Z,61.57
2018-12-09T23:54:34.299Z,62.02
2018-12-09T23:57:03.432Z,62.38
2018-12-09T23:59:32.723Z,62.37
